Onancock, Virginia
Current Conditions -  °F | °C
As of 10:55 PM on Tuesday 27 Jan 2015 (Local Time) from KMFV Reporting Station
Clear Clear  
Wind Chill: 23°   Ceiling: Unl
Heat Index: 32°   Visibility: 10mi
Dew Point: 21°   Wind: 12mph
Humidity: 64%   Direction: 330°NNW
Pressure: 29.9"   Gusts: 24mph
Location:  37.71°N, 75.75°W
Report Text: KMFV 280355Z AUTO 33010G21KT 10SM CLR 00/M06 A2990 RMK AO2
Loading
Personal Weather Stations






























Interactive Weather Map New forecast layout! Learn more

10-Day Weather Forecast

Advertisements
Track Severe Weather on mobile